sensor_id;sensor_type;location;lat;lon;timestamp;temperature;humidity
420;DHT22;42600;54.408;13.016;2023-04-23T00:01:03;10.70;90.90
420;DHT22;42600;54.408;13.016;2023-04-23T00:03:31;10.70;90.80
420;DHT22;42600;54.408;13.016;2023-04-23T00:05:59;10.80;90.50
420;DHT22;42600;54.408;13.016;2023-04-23T00:08:29;10.80;90.20
420;DHT22;42600;54.408;13.016;2023-04-23T00:10:57;10.80;89.50
420;DHT22;42600;54.408;13.016;2023-04-23T00:13:25;10.80;89.70
420;DHT22;42600;54.408;13.016;2023-04-23T00:15:52;10.80;89.60
420;DHT22;42600;54.408;13.016;2023-04-23T00:18:18;10.80;89.80
420;DHT22;42600;54.408;13.016;2023-04-23T00:20:45;10.80;89.50
420;DHT22;42600;54.408;13.016;2023-04-23T00:23:11;10.90;89.70
420;DHT22;42600;54.408;13.016;2023-04-23T00:25:39;11.00;89.30
420;DHT22;42600;54.408;13.016;2023-04-23T00:28:06;11.00;88.80
420;DHT22;42600;54.408;13.016;2023-04-23T00:30:32;11.10;87.60
420;DHT22;42600;54.408;13.016;2023-04-23T00:32:59;11.10;87.70
420;DHT22;42600;54.408;13.016;2023-04-23T00:35:26;11.10;87.70
420;DHT22;42600;54.408;13.016;2023-04-23T00:37:52;11.10;87.70
420;DHT22;42600;54.408;13.016;2023-04-23T00:40:19;11.10;88.10
420;DHT22;42600;54.408;13.016;2023-04-23T00:42:47;11.10;87.60
420;DHT22;42600;54.408;13.016;2023-04-23T00:45:16;11.10;87.40
420;DHT22;42600;54.408;13.016;2023-04-23T00:47:43;11.20;87.10
420;DHT22;42600;54.408;13.016;2023-04-23T00:50:10;11.20;87.20
420;DHT22;42600;54.408;13.016;2023-04-23T00:52:37;11.20;86.70
420;DHT22;42600;54.408;13.016;2023-04-23T00:55:05;11.20;86.50
420;DHT22;42600;54.408;13.016;2023-04-23T00:57:33;11.20;86.10
420;DHT22;42600;54.408;13.016;2023-04-23T01:00:01;11.20;86.20
420;DHT22;42600;54.408;13.016;2023-04-23T01:02:30;11.20;86.10
420;DHT22;42600;54.408;13.016;2023-04-23T01:04:57;11.30;85.80
420;DHT22;42600;54.408;13.016;2023-04-23T01:07:25;11.30;85.70
420;DHT22;42600;54.408;13.016;2023-04-23T01:09:52;11.30;85.60
420;DHT22;42600;54.408;13.016;2023-04-23T01:12:18;11.30;86.50
420;DHT22;42600;54.408;13.016;2023-04-23T01:14:45;11.30;85.60
420;DHT22;42600;54.408;13.016;2023-04-23T01:17:14;11.30;85.40
420;DHT22;42600;54.408;13.016;2023-04-23T01:19:40;11.40;84.80
420;DHT22;42600;54.408;13.016;2023-04-23T01:22:10;11.40;84.40
420;DHT22;42600;54.408;13.016;2023-04-23T01:24:37;11.40;84.40
420;DHT22;42600;54.408;13.016;2023-04-23T01:27:04;11.40;84.10
420;DHT22;42600;54.408;13.016;2023-04-23T01:29:31;11.30;84.10
420;DHT22;42600;54.408;13.016;2023-04-23T01:31:58;11.40;83.60
420;DHT22;42600;54.408;13.016;2023-04-23T01:34:25;11.40;84.50
420;DHT22;42600;54.408;13.016;2023-04-23T01:36:53;11.40;83.80
420;DHT22;42600;54.408;13.016;2023-04-23T01:39:21;11.40;84.10
420;DHT22;42600;54.408;13.016;2023-04-23T01:41:48;11.40;84.20
420;DHT22;42600;54.408;13.016;2023-04-23T01:44:15;11.40;84.40
420;DHT22;42600;54.408;13.016;2023-04-23T01:46:41;11.40;84.60
420;DHT22;42600;54.408;13.016;2023-04-23T01:49:08;11.40;84.70
420;DHT22;42600;54.408;13.016;2023-04-23T01:51:35;11.40;84.50
420;DHT22;42600;54.408;13.016;2023-04-23T01:54:02;11.40;84.70
420;DHT22;42600;54.408;13.016;2023-04-23T01:56:29;11.40;85.00
420;DHT22;42600;54.408;13.016;2023-04-23T01:58:59;11.40;85.00
420;DHT22;42600;54.408;13.016;2023-04-23T02:01:40;11.40;85.20
420;DHT22;42600;54.408;13.016;2023-04-23T02:04:07;11.40;84.80
420;DHT22;42600;54.408;13.016;2023-04-23T02:06:34;11.40;85.10
420;DHT22;42600;54.408;13.016;2023-04-23T02:09:01;11.40;85.30
420;DHT22;42600;54.408;13.016;2023-04-23T02:11:27;11.40;84.60
420;DHT22;42600;54.408;13.016;2023-04-23T02:13:55;11.40;84.60
420;DHT22;42600;54.408;13.016;2023-04-23T02:16:22;11.40;85.00
420;DHT22;42600;54.408;13.016;2023-04-23T02:18:49;11.30;84.80
420;DHT22;42600;54.408;13.016;2023-04-23T02:21:16;11.20;84.50
420;DHT22;42600;54.408;13.016;2023-04-23T02:23:42;11.20;84.80
420;DHT22;42600;54.408;13.016;2023-04-23T02:26:09;11.20;84.20
420;DHT22;42600;54.408;13.016;2023-04-23T02:28:36;11.30;84.00
420;DHT22;42600;54.408;13.016;2023-04-23T02:31:04;11.20;83.70
420;DHT22;42600;54.408;13.016;2023-04-23T02:33:31;11.20;83.80
420;DHT22;42600;54.408;13.016;2023-04-23T02:35:57;11.20;83.60
420;DHT22;42600;54.408;13.016;2023-04-23T02:38:24;11.20;83.60
420;DHT22;42600;54.408;13.016;2023-04-23T02:40:50;11.20;83.50
420;DHT22;42600;54.408;13.016;2023-04-23T02:43:17;11.20;83.10
420;DHT22;42600;54.408;13.016;2023-04-23T02:45:44;11.30;83.00
420;DHT22;42600;54.408;13.016;2023-04-23T02:48:11;11.30;83.40
420;DHT22;42600;54.408;13.016;2023-04-23T02:50:38;11.30;83.20
420;DHT22;42600;54.408;13.016;2023-04-23T02:53:05;11.30;82.90
420;DHT22;42600;54.408;13.016;2023-04-23T02:55:31;11.40;83.10
420;DHT22;42600;54.408;13.016;2023-04-23T02:57:58;11.40;83.10
420;DHT22;42600;54.408;13.016;2023-04-23T03:00:25;11.40;83.50
420;DHT22;42600;54.408;13.016;2023-04-23T03:02:52;11.40;82.70
420;DHT22;42600;54.408;13.016;2023-04-23T03:05:20;11.40;82.90
420;DHT22;42600;54.408;13.016;2023-04-23T03:07:46;11.40;83.00
420;DHT22;42600;54.408;13.016;2023-04-23T03:10:13;11.40;83.40
420;DHT22;42600;54.408;13.016;2023-04-23T03:12:40;11.40;83.20
420;DHT22;42600;54.408;13.016;2023-04-23T03:15:06;11.40;83.30
420;DHT22;42600;54.408;13.016;2023-04-23T03:17:33;11.40;83.10
420;DHT22;42600;54.408;13.016;2023-04-23T03:20:00;11.50;83.20
420;DHT22;42600;54.408;13.016;2023-04-23T03:22:28;11.40;83.50
420;DHT22;42600;54.408;13.016;2023-04-23T03:24:54;11.40;83.80
420;DHT22;42600;54.408;13.016;2023-04-23T03:27:21;11.40;83.90
420;DHT22;42600;54.408;13.016;2023-04-23T03:29:48;11.40;83.60
420;DHT22;42600;54.408;13.016;2023-04-23T03:32:15;11.40;84.10
420;DHT22;42600;54.408;13.016;2023-04-23T03:34:41;11.40;84.60
420;DHT22;42600;54.408;13.016;2023-04-23T03:37:08;11.30;84.60
420;DHT22;42600;54.408;13.016;2023-04-23T03:39:36;11.30;84.70
420;DHT22;42600;54.408;13.016;2023-04-23T03:42:03;11.30;84.50
420;DHT22;42600;54.408;13.016;2023-04-23T03:44:29;11.30;84.60
420;DHT22;42600;54.408;13.016;2023-04-23T03:46:56;11.30;84.80
420;DHT22;42600;54.408;13.016;2023-04-23T03:49:24;11.30;84.80
420;DHT22;42600;54.408;13.016;2023-04-23T03:51:51;11.30;84.70
420;DHT22;42600;54.408;13.016;2023-04-23T03:54:18;11.30;85.00
420;DHT22;42600;54.408;13.016;2023-04-23T03:56:46;11.30;85.00
420;DHT22;42600;54.408;13.016;2023-04-23T03:59:13;11.30;84.80
420;DHT22;42600;54.408;13.016;2023-04-23T04:01:39;11.30;85.40
420;DHT22;42600;54.408;13.016;2023-04-23T04:04:06;11.30;85.40
420;DHT22;42600;54.408;13.016;2023-04-23T04:06:32;11.30;85.10
420;DHT22;42600;54.408;13.016;2023-04-23T04:08:59;11.30;85.30
420;DHT22;42600;54.408;13.016;2023-04-23T04:11:26;11.30;84.80
420;DHT22;42600;54.408;13.016;2023-04-23T04:13:54;11.30;84.90
420;DHT22;42600;54.408;13.016;2023-04-23T04:16:20;11.40;85.60
420;DHT22;42600;54.408;13.016;2023-04-23T04:18:47;11.40;85.50
420;DHT22;42600;54.408;13.016;2023-04-23T04:21:13;11.40;85.10
420;DHT22;42600;54.408;13.016;2023-04-23T04:23:42;11.40;86.20
420;DHT22;42600;54.408;13.016;2023-04-23T04:26:08;11.40;85.50
420;DHT22;42600;54.408;13.016;2023-04-23T04:28:35;11.40;86.00
420;DHT22;42600;54.408;13.016;2023-04-23T04:31:03;11.40;85.60
420;DHT22;42600;54.408;13.016;2023-04-23T04:33:31;11.40;85.50
420;DHT22;42600;54.408;13.016;2023-04-23T04:35:58;11.40;85.90
420;DHT22;42600;54.408;13.016;2023-04-23T04:38:26;11.40;85.60
420;DHT22;42600;54.408;13.016;2023-04-23T04:40:54;11.40;86.10
420;DHT22;42600;54.408;13.016;2023-04-23T04:43:23;11.30;86.00
420;DHT22;42600;54.408;13.016;2023-04-23T04:45:49;11.40;86.70
420;DHT22;42600;54.408;13.016;2023-04-23T04:48:17;11.30;85.20
420;DHT22;42600;54.408;13.016;2023-04-23T04:50:44;11.30;85.70
420;DHT22;42600;54.408;13.016;2023-04-23T04:53:11;11.30;86.10
420;DHT22;42600;54.408;13.016;2023-04-23T04:55:37;11.30;85.50
420;DHT22;42600;54.408;13.016;2023-04-23T04:58:04;11.30;85.90
420;DHT22;42600;54.408;13.016;2023-04-23T05:00:31;11.30;86.20
420;DHT22;42600;54.408;13.016;2023-04-23T05:02:58;11.30;85.60
420;DHT22;42600;54.408;13.016;2023-04-23T05:05:27;11.30;85.30
420;DHT22;42600;54.408;13.016;2023-04-23T05:07:53;11.40;87.10
420;DHT22;42600;54.408;13.016;2023-04-23T05:10:23;11.30;86.90
420;DHT22;42600;54.408;13.016;2023-04-23T05:12:50;11.30;87.20
420;DHT22;42600;54.408;13.016;2023-04-23T05:15:17;11.30;87.80
420;DHT22;42600;54.408;13.016;2023-04-23T05:17:43;11.40;88.40
420;DHT22;42600;54.408;13.016;2023-04-23T05:20:10;11.40;88.70
420;DHT22;42600;54.408;13.016;2023-04-23T05:22:39;11.40;89.10
420;DHT22;42600;54.408;13.016;2023-04-23T05:25:07;11.40;87.90
420;DHT22;42600;54.408;13.016;2023-04-23T05:27:34;11.40;87.10
420;DHT22;42600;54.408;13.016;2023-04-23T05:30:01;11.40;86.40
420;DHT22;42600;54.408;13.016;2023-04-23T05:32:28;11.40;86.60
420;DHT22;42600;54.408;13.016;2023-04-23T05:34:55;11.50;86.90
420;DHT22;42600;54.408;13.016;2023-04-23T05:37:22;11.50;86.60
420;DHT22;42600;54.408;13.016;2023-04-23T05:39:49;11.50;86.30
420;DHT22;42600;54.408;13.016;2023-04-23T05:42:16;11.50;86.60
420;DHT22;42600;54.408;13.016;2023-04-23T05:44:42;11.50;86.90
420;DHT22;42600;54.408;13.016;2023-04-23T05:47:11;11.60;87.20
420;DHT22;42600;54.408;13.016;2023-04-23T05:49:37;11.60;87.20
420;DHT22;42600;54.408;13.016;2023-04-23T05:52:04;11.60;87.10
420;DHT22;42600;54.408;13.016;2023-04-23T05:54:31;11.60;87.10
420;DHT22;42600;54.408;13.016;2023-04-23T05:56:59;11.60;87.10
420;DHT22;42600;54.408;13.016;2023-04-23T05:59:25;11.70;86.90
420;DHT22;42600;54.408;13.016;2023-04-23T06:01:52;11.70;87.00
420;DHT22;42600;54.408;13.016;2023-04-23T06:04:19;11.80;87.30
420;DHT22;42600;54.408;13.016;2023-04-23T06:06:46;11.80;87.60
420;DHT22;42600;54.408;13.016;2023-04-23T06:09:12;11.80;87.30
420;DHT22;42600;54.408;13.016;2023-04-23T06:11:39;11.80;87.30
420;DHT22;42600;54.408;13.016;2023-04-23T06:14:07;11.90;87.60
420;DHT22;42600;54.408;13.016;2023-04-23T06:16:33;12.00;88.10
420;DHT22;42600;54.408;13.016;2023-04-23T06:19:00;12.00;87.50
420;DHT22;42600;54.408;13.016;2023-04-23T06:21:26;12.00;87.70
420;DHT22;42600;54.408;13.016;2023-04-23T06:23:53;12.10;87.80
420;DHT22;42600;54.408;13.016;2023-04-23T06:26:19;12.20;87.80
420;DHT22;42600;54.408;13.016;2023-04-23T06:28:46;12.20;87.90
420;DHT22;42600;54.408;13.016;2023-04-23T06:31:14;12.30;87.90
420;DHT22;42600;54.408;13.016;2023-04-23T06:33:41;12.50;88.70
420;DHT22;42600;54.408;13.016;2023-04-23T06:36:07;12.60;88.30
420;DHT22;42600;54.408;13.016;2023-04-23T06:38:35;12.70;88.10
420;DHT22;42600;54.408;13.016;2023-04-23T06:41:02;12.80;88.10
420;DHT22;42600;54.408;13.016;2023-04-23T06:43:29;12.90;88.40
420;DHT22;42600;54.408;13.016;2023-04-23T06:45:55;13.00;88.40
420;DHT22;42600;54.408;13.016;2023-04-23T06:48:23;13.10;88.70
420;DHT22;42600;54.408;13.016;2023-04-23T06:50:51;13.10;89.20
420;DHT22;42600;54.408;13.016;2023-04-23T06:53:17;13.20;89.30
420;DHT22;42600;54.408;13.016;2023-04-23T06:55:44;13.30;89.60
420;DHT22;42600;54.408;13.016;2023-04-23T06:58:10;13.30;88.70
420;DHT22;42600;54.408;13.016;2023-04-23T07:00:37;13.40;89.50
420;DHT22;42600;54.408;13.016;2023-04-23T07:03:04;13.40;89.50
420;DHT22;42600;54.408;13.016;2023-04-23T07:05:32;13.50;90.60
420;DHT22;42600;54.408;13.016;2023-04-23T07:07:58;13.50;90.50
420;DHT22;42600;54.408;13.016;2023-04-23T07:10:25;13.60;90.30
420;DHT22;42600;54.408;13.016;2023-04-23T07:12:51;13.60;90.60
420;DHT22;42600;54.408;13.016;2023-04-23T07:15:18;13.70;91.10
420;DHT22;42600;54.408;13.016;2023-04-23T07:17:44;13.70;90.40
420;DHT22;42600;54.408;13.016;2023-04-23T07:20:11;13.70;91.30
420;DHT22;42600;54.408;13.016;2023-04-23T07:22:39;13.80;91.90
420;DHT22;42600;54.408;13.016;2023-04-23T07:25:06;13.80;91.60
420;DHT22;42600;54.408;13.016;2023-04-23T07:27:33;13.80;91.70
420;DHT22;42600;54.408;13.016;2023-04-23T07:29:59;13.80;92.20
420;DHT22;42600;54.408;13.016;2023-04-23T07:32:27;13.80;91.60
420;DHT22;42600;54.408;13.016;2023-04-23T07:34:53;13.80;91.70
420;DHT22;42600;54.408;13.016;2023-04-23T07:37:20;13.90;92.60
420;DHT22;42600;54.408;13.016;2023-04-23T07:39:48;13.90;92.70
420;DHT22;42600;54.408;13.016;2023-04-23T07:42:15;13.80;92.70
420;DHT22;42600;54.408;13.016;2023-04-23T07:44:42;13.80;92.70
420;DHT22;42600;54.408;13.016;2023-04-23T07:47:08;13.80;92.70
420;DHT22;42600;54.408;13.016;2023-04-23T07:49:35;13.80;92.70
420;DHT22;42600;54.408;13.016;2023-04-23T07:52:02;13.80;92.70
420;DHT22;42600;54.408;13.016;2023-04-23T07:54:29;13.80;92.70
420;DHT22;42600;54.408;13.016;2023-04-23T07:56:57;13.80;92.70
420;DHT22;42600;54.408;13.016;2023-04-23T07:59:23;13.70;92.70
420;DHT22;42600;54.408;13.016;2023-04-23T08:01:50;13.70;92.70
420;DHT22;42600;54.408;13.016;2023-04-23T08:04:17;13.70;92.70
420;DHT22;42600;54.408;13.016;2023-04-23T08:06:44;13.60;92.70
420;DHT22;42600;54.408;13.016;2023-04-23T08:09:10;13.50;92.70
420;DHT22;42600;54.408;13.016;2023-04-23T08:11:37;13.40;92.70
420;DHT22;42600;54.408;13.016;2023-04-23T08:14:05;13.40;92.70
420;DHT22;42600;54.408;13.016;2023-04-23T08:16:31;13.30;92.70
420;DHT22;42600;54.408;13.016;2023-04-23T08:18:58;13.20;92.70
420;DHT22;42600;54.408;13.016;2023-04-23T08:21:25;13.20;92.70
420;DHT22;42600;54.408;13.016;2023-04-23T08:23:53;13.20;92.70
420;DHT22;42600;54.408;13.016;2023-04-23T08:26:19;13.10;92.70
420;DHT22;42600;54.408;13.016;2023-04-23T08:28:46;13.10;92.70
420;DHT22;42600;54.408;13.016;2023-04-23T08:31:14;13.00;92.70
420;DHT22;42600;54.408;13.016;2023-04-23T08:33:41;13.00;92.70
420;DHT22;42600;54.408;13.016;2023-04-23T08:36:08;12.90;92.70
420;DHT22;42600;54.408;13.016;2023-04-23T08:38:34;12.90;92.70
420;DHT22;42600;54.408;13.016;2023-04-23T08:41:05;12.80;92.70
420;DHT22;42600;54.408;13.016;2023-04-23T08:43:36;12.80;92.70
420;DHT22;42600;54.408;13.016;2023-04-23T08:46:05;12.70;92.70
420;DHT22;42600;54.408;13.016;2023-04-23T08:48:37;12.70;92.70
420;DHT22;42600;54.408;13.016;2023-04-23T08:51:07;12.60;92.70
420;DHT22;42600;54.408;13.016;2023-04-23T08:53:36;12.60;92.70
420;DHT22;42600;54.408;13.016;2023-04-23T08:56:04;12.50;92.70
420;DHT22;42600;54.408;13.016;2023-04-23T08:58:32;12.40;92.70
420;DHT22;42600;54.408;13.016;2023-04-23T09:01:00;12.40;92.70
420;DHT22;42600;54.408;13.016;2023-04-23T09:03:27;12.40;92.70
420;DHT22;42600;54.408;13.016;2023-04-23T09:05:56;12.30;92.70
420;DHT22;42600;54.408;13.016;2023-04-23T09:08:23;12.30;92.70
420;DHT22;42600;54.408;13.016;2023-04-23T09:10:51;12.30;92.70
420;DHT22;42600;54.408;13.016;2023-04-23T09:13:20;12.20;92.70
420;DHT22;42600;54.408;13.016;2023-04-23T09:15:47;12.20;92.70
420;DHT22;42600;54.408;13.016;2023-04-23T09:18:14;12.20;92.70
420;DHT22;42600;54.408;13.016;2023-04-23T09:20:41;12.20;92.70
420;DHT22;42600;54.408;13.016;2023-04-23T09:23:13;12.10;92.70
420;DHT22;42600;54.408;13.016;2023-04-23T09:25:40;12.20;92.70
420;DHT22;42600;54.408;13.016;2023-04-23T09:28:07;12.10;92.70
420;DHT22;42600;54.408;13.016;2023-04-23T09:30:38;12.10;92.70
420;DHT22;42600;54.408;13.016;2023-04-23T09:33:05;12.10;92.70
420;DHT22;42600;54.408;13.016;2023-04-23T09:35:32;12.00;92.70
420;DHT22;42600;54.408;13.016;2023-04-23T09:38:00;12.00;92.70
420;DHT22;42600;54.408;13.016;2023-04-23T09:40:31;12.00;92.70
420;DHT22;42600;54.408;13.016;2023-04-23T09:42:58;12.00;92.70
420;DHT22;42600;54.408;13.016;2023-04-23T09:45:25;11.90;92.70
420;DHT22;42600;54.408;13.016;2023-04-23T09:47:53;11.90;92.70
420;DHT22;42600;54.408;13.016;2023-04-23T09:50:30;11.90;92.70
420;DHT22;42600;54.408;13.016;2023-04-23T09:52:57;11.90;92.70
420;DHT22;42600;54.408;13.016;2023-04-23T09:55:28;11.90;92.70
420;DHT22;42600;54.408;13.016;2023-04-23T09:58:01;11.90;92.70
420;DHT22;42600;54.408;13.016;2023-04-23T10:00:32;12.00;92.70
420;DHT22;42600;54.408;13.016;2023-04-23T10:02:59;12.00;92.70
420;DHT22;42600;54.408;13.016;2023-04-23T10:05:27;12.00;92.70
420;DHT22;42600;54.408;13.016;2023-04-23T10:07:54;12.00;92.70
420;DHT22;42600;54.408;13.016;2023-04-23T10:10:23;12.00;92.70
420;DHT22;42600;54.408;13.016;2023-04-23T10:12:51;12.00;92.70
420;DHT22;42600;54.408;13.016;2023-04-23T10:15:20;12.00;92.70
420;DHT22;42600;54.408;13.016;2023-04-23T10:17:49;11.90;92.70
420;DHT22;42600;54.408;13.016;2023-04-23T10:20:16;11.90;92.70
420;DHT22;42600;54.408;13.016;2023-04-23T10:22:45;11.90;92.70
420;DHT22;42600;54.408;13.016;2023-04-23T10:25:12;11.90;92.70
420;DHT22;42600;54.408;13.016;2023-04-23T10:27:40;11.90;92.70
420;DHT22;42600;54.408;13.016;2023-04-23T10:30:09;12.00;92.70
420;DHT22;42600;54.408;13.016;2023-04-23T10:32:38;12.00;92.70
420;DHT22;42600;54.408;13.016;2023-04-23T10:35:06;11.90;92.70
420;DHT22;42600;54.408;13.016;2023-04-23T10:37:34;11.90;92.70
420;DHT22;42600;54.408;13.016;2023-04-23T10:40:06;11.90;92.70
420;DHT22;42600;54.408;13.016;2023-04-23T10:42:36;11.90;92.70
420;DHT22;42600;54.408;13.016;2023-04-23T10:45:11;11.90;92.70
420;DHT22;42600;54.408;13.016;2023-04-23T10:47:41;11.90;92.70
420;DHT22;42600;54.408;13.016;2023-04-23T10:50:19;11.80;92.70
420;DHT22;42600;54.408;13.016;2023-04-23T10:52:46;11.80;92.70
420;DHT22;42600;54.408;13.016;2023-04-23T10:55:16;11.80;92.70
420;DHT22;42600;54.408;13.016;2023-04-23T10:57:58;11.80;92.70
420;DHT22;42600;54.408;13.016;2023-04-23T11:00:26;11.80;92.70
420;DHT22;42600;54.408;13.016;2023-04-23T11:02:54;11.80;92.70
420;DHT22;42600;54.408;13.016;2023-04-23T11:05:21;11.80;92.70
420;DHT22;42600;54.408;13.016;2023-04-23T11:08:03;11.80;92.70
420;DHT22;42600;54.408;13.016;2023-04-23T11:10:31;11.80;92.70
420;DHT22;42600;54.408;13.016;2023-04-23T11:13:21;11.80;92.70
420;DHT22;42600;54.408;13.016;2023-04-23T11:15:54;11.90;92.70
420;DHT22;42600;54.408;13.016;2023-04-23T11:18:57;11.90;92.70
420;DHT22;42600;54.408;13.016;2023-04-23T11:24:24;11.90;92.70
420;DHT22;42600;54.408;13.016;2023-04-23T11:26:52;11.90;92.70
420;DHT22;42600;54.408;13.016;2023-04-23T11:29:20;12.00;92.70
420;DHT22;42600;54.408;13.016;2023-04-23T11:31:48;12.00;92.70
420;DHT22;42600;54.408;13.016;2023-04-23T11:34:16;12.00;92.70
420;DHT22;42600;54.408;13.016;2023-04-23T11:36:43;12.00;92.70
420;DHT22;42600;54.408;13.016;2023-04-23T11:39:10;12.00;92.70
420;DHT22;42600;54.408;13.016;2023-04-23T11:41:37;12.00;92.70
420;DHT22;42600;54.408;13.016;2023-04-23T11:44:03;12.00;92.70
420;DHT22;42600;54.408;13.016;2023-04-23T11:46:31;12.00;92.70
420;DHT22;42600;54.408;13.016;2023-04-23T11:48:58;12.00;92.70
420;DHT22;42600;54.408;13.016;2023-04-23T11:51:26;12.00;92.70
420;DHT22;42600;54.408;13.016;2023-04-23T11:53:53;12.00;92.70
420;DHT22;42600;54.408;13.016;2023-04-23T11:56:20;12.00;92.70
420;DHT22;42600;54.408;13.016;2023-04-23T11:58:57;12.00;92.70
420;DHT22;42600;54.408;13.016;2023-04-23T12:01:24;12.00;92.70
420;DHT22;42600;54.408;13.016;2023-04-23T12:03:51;12.10;92.70
420;DHT22;42600;54.408;13.016;2023-04-23T12:06:17;12.10;92.70
420;DHT22;42600;54.408;13.016;2023-04-23T12:08:46;12.10;92.50
420;DHT22;42600;54.408;13.016;2023-04-23T12:11:13;12.10;92.20
420;DHT22;42600;54.408;13.016;2023-04-23T12:13:39;12.10;92.30
420;DHT22;42600;54.408;13.016;2023-04-23T12:16:07;12.20;92.40
420;DHT22;42600;54.408;13.016;2023-04-23T12:18:34;12.20;92.50
420;DHT22;42600;54.408;13.016;2023-04-23T12:21:07;12.20;92.20
420;DHT22;42600;54.408;13.016;2023-04-23T12:23:35;12.20;91.40
420;DHT22;42600;54.408;13.016;2023-04-23T12:26:08;12.20;90.70
420;DHT22;42600;54.408;13.016;2023-04-23T12:28:44;12.20;90.10
420;DHT22;42600;54.408;13.016;2023-04-23T12:31:18;12.20;89.70
420;DHT22;42600;54.408;13.016;2023-04-23T12:33:44;12.20;89.90
420;DHT22;42600;54.408;13.016;2023-04-23T12:36:14;12.30;89.70
420;DHT22;42600;54.408;13.016;2023-04-23T12:38:41;12.30;89.80
420;DHT22;42600;54.408;13.016;2023-04-23T12:41:09;12.30;89.90
420;DHT22;42600;54.408;13.016;2023-04-23T12:43:36;12.40;89.40
420;DHT22;42600;54.408;13.016;2023-04-23T12:46:02;12.40;89.30
420;DHT22;42600;54.408;13.016;2023-04-23T12:48:29;12.50;89.70
420;DHT22;42600;54.408;13.016;2023-04-23T12:50:56;12.60;89.80
420;DHT22;42600;54.408;13.016;2023-04-23T12:53:22;12.60;89.10
420;DHT22;42600;54.408;13.016;2023-04-23T12:55:49;12.60;88.90
420;DHT22;42600;54.408;13.016;2023-04-23T12:58:17;12.60;89.00
420;DHT22;42600;54.408;13.016;2023-04-23T13:00:43;12.70;89.00
420;DHT22;42600;54.408;13.016;2023-04-23T13:03:10;12.70;89.20
420;DHT22;42600;54.408;13.016;2023-04-23T13:05:39;12.80;89.10
420;DHT22;42600;54.408;13.016;2023-04-23T13:08:06;12.80;88.80
420;DHT22;42600;54.408;13.016;2023-04-23T13:10:33;12.90;88.90
420;DHT22;42600;54.408;13.016;2023-04-23T13:13:00;13.00;89.40
420;DHT22;42600;54.408;13.016;2023-04-23T13:15:28;13.00;89.20
420;DHT22;42600;54.408;13.016;2023-04-23T13:17:54;13.10;89.20
420;DHT22;42600;54.408;13.016;2023-04-23T13:20:21;13.20;89.20
420;DHT22;42600;54.408;13.016;2023-04-23T13:22:49;13.20;88.70
420;DHT22;42600;54.408;13.016;2023-04-23T13:25:16;13.30;88.60
420;DHT22;42600;54.408;13.016;2023-04-23T13:27:42;13.30;88.10
420;DHT22;42600;54.408;13.016;2023-04-23T13:30:10;13.30;87.80
420;DHT22;42600;54.408;13.016;2023-04-23T13:32:38;13.40;87.90
420;DHT22;42600;54.408;13.016;2023-04-23T13:35:06;13.40;87.40
420;DHT22;42600;54.408;13.016;2023-04-23T13:37:33;13.40;87.30
420;DHT22;42600;54.408;13.016;2023-04-23T13:40:00;13.50;87.60
420;DHT22;42600;54.408;13.016;2023-04-23T13:42:27;13.50;87.60
420;DHT22;42600;54.408;13.016;2023-04-23T13:44:53;13.50;87.70
420;DHT22;42600;54.408;13.016;2023-04-23T13:47:21;13.60;87.40
420;DHT22;42600;54.408;13.016;2023-04-23T13:49:49;13.70;87.20
420;DHT22;42600;54.408;13.016;2023-04-23T13:52:16;13.70;87.40
420;DHT22;42600;54.408;13.016;2023-04-23T13:54:42;13.80;87.40
420;DHT22;42600;54.408;13.016;2023-04-23T13:57:12;13.80;87.40
420;DHT22;42600;54.408;13.016;2023-04-23T13:59:38;13.90;86.80
420;DHT22;42600;54.408;13.016;2023-04-23T14:02:05;13.90;86.50
420;DHT22;42600;54.408;13.016;2023-04-23T14:04:32;13.90;86.00
420;DHT22;42600;54.408;13.016;2023-04-23T14:07:00;13.90;85.90
420;DHT22;42600;54.408;13.016;2023-04-23T14:09:27;14.00;86.20
420;DHT22;42600;54.408;13.016;2023-04-23T14:11:54;14.10;85.60
420;DHT22;42600;54.408;13.016;2023-04-23T14:14:21;14.10;85.00
420;DHT22;42600;54.408;13.016;2023-04-23T14:16:48;14.10;85.20
420;DHT22;42600;54.408;13.016;2023-04-23T14:19:15;14.10;84.90
420;DHT22;42600;54.408;13.016;2023-04-23T14:21:42;14.10;84.40
420;DHT22;42600;54.408;13.016;2023-04-23T14:24:16;14.20;84.40
420;DHT22;42600;54.408;13.016;2023-04-23T14:26:43;14.20;84.50
420;DHT22;42600;54.408;13.016;2023-04-23T14:29:18;14.20;84.50
420;DHT22;42600;54.408;13.016;2023-04-23T14:31:48;14.30;84.00
420;DHT22;42600;54.408;13.016;2023-04-23T14:34:15;14.30;83.80
420;DHT22;42600;54.408;13.016;2023-04-23T14:36:41;14.30;84.10
420;DHT22;42600;54.408;13.016;2023-04-23T14:39:10;14.30;83.50
420;DHT22;42600;54.408;13.016;2023-04-23T14:41:36;14.30;83.40
420;DHT22;42600;54.408;13.016;2023-04-23T14:44:04;14.40;83.50
420;DHT22;42600;54.408;13.016;2023-04-23T14:46:31;14.40;83.00
420;DHT22;42600;54.408;13.016;2023-04-23T14:48:57;14.40;82.80
420;DHT22;42600;54.408;13.016;2023-04-23T14:51:24;14.50;83.10
420;DHT22;42600;54.408;13.016;2023-04-23T14:53:51;14.50;83.00
420;DHT22;42600;54.408;13.016;2023-04-23T14:56:19;14.50;83.00
420;DHT22;42600;54.408;13.016;2023-04-23T14:58:46;14.50;82.50
420;DHT22;42600;54.408;13.016;2023-04-23T15:01:13;14.60;80.50
420;DHT22;42600;54.408;13.016;2023-04-23T15:03:40;14.60;81.00
420;DHT22;42600;54.408;13.016;2023-04-23T15:06:08;14.60;80.30
420;DHT22;42600;54.408;13.016;2023-04-23T15:08:35;14.60;80.20
420;DHT22;42600;54.408;13.016;2023-04-23T15:11:01;14.60;79.00
420;DHT22;42600;54.408;13.016;2023-04-23T15:13:42;14.60;78.20
420;DHT22;42600;54.408;13.016;2023-04-23T15:16:18;14.60;78.50
420;DHT22;42600;54.408;13.016;2023-04-23T15:18:45;14.60;78.30
420;DHT22;42600;54.408;13.016;2023-04-23T15:21:12;14.60;78.10
420;DHT22;42600;54.408;13.016;2023-04-23T15:23:38;14.60;77.30
420;DHT22;42600;54.408;13.016;2023-04-23T15:26:06;14.60;77.30
420;DHT22;42600;54.408;13.016;2023-04-23T15:28:33;14.60;78.00
420;DHT22;42600;54.408;13.016;2023-04-23T15:31:01;14.60;78.00
420;DHT22;42600;54.408;13.016;2023-04-23T15:33:28;14.60;78.10
420;DHT22;42600;54.408;13.016;2023-04-23T15:35:55;14.70;78.10
420;DHT22;42600;54.408;13.016;2023-04-23T15:38:21;14.60;76.80
420;DHT22;42600;54.408;13.016;2023-04-23T15:40:48;14.60;78.30
420;DHT22;42600;54.408;13.016;2023-04-23T15:43:15;14.60;78.50
420;DHT22;42600;54.408;13.016;2023-04-23T15:45:42;14.60;78.70
420;DHT22;42600;54.408;13.016;2023-04-23T15:48:14;14.40;75.70
420;DHT22;42600;54.408;13.016;2023-04-23T15:50:41;14.50;79.10